Time;durP1;ratioP1;P1;durP2;ratioP2;P2;SDS_P1;SDS_P2;PMS_P1;PMS_P2;Temp;Humidity;BMP_temperature;BMP_pressure;BME280_temperature;BME280_humidity;BME280_pressure;Samples;Min_cycle;Max_cycle;Signal;HPM_P1;HPM_P2
2022/01/26 00:06:41;;;;;;;0.00;0.00;;;5.50;99.90;;;;;;6212189;23;20013;-73
2022/01/26 00:09:08;;;;;;;0.00;0.00;;;5.50;99.90;;;;;;6212320;23;20001;-73
2022/01/26 00:11:35;;;;;;;0.00;0.00;;;5.60;99.90;;;;;;6211438;23;20079;-72
2022/01/26 00:14:03;;;;;;;0.00;0.00;;;5.40;99.90;;;;;;6210580;23;19996;-72
2022/01/26 00:16:43;;;;;;;0.00;0.00;;;5.30;99.90;;;;;;6212812;23;19993;-71
2022/01/26 00:19:16;;;;;;;0.00;0.00;;;5.30;99.90;;;;;;6212682;23;20103;-73
2022/01/26 00:21:52;;;;;;;0.00;0.00;;;5.30;99.90;;;;;;6209418;23;20306;-73
2022/01/26 00:29:31;;;;;;;0.00;0.00;;;5.30;99.90;;;;;;6212966;23;20000;-73
2022/01/26 00:40:37;;;;;;;0.00;0.00;;;5.30;99.90;;;;;;6212209;23;20456;-72
2022/01/26 00:43:19;;;;;;;0.00;0.00;;;5.10;99.90;;;;;;6211662;23;20008;-72
2022/01/26 00:45:45;;;;;;;0.00;0.00;;;5.10;99.90;;;;;;6213612;23;20004;-71
2022/01/26 00:48:11;;;;;;;0.00;0.00;;;5.30;99.90;;;;;;6212766;23;20004;-73
2022/01/26 00:50:39;;;;;;;0.00;0.00;;;5.10;99.90;;;;;;6213525;23;20039;-71
2022/01/26 00:53:05;;;;;;;0.00;0.00;;;5.10;99.90;;;;;;6214285;23;20000;-72
2022/01/26 00:55:32;;;;;;;0.00;0.00;;;5.10;99.90;;;;;;6212443;23;19997;-72
2022/01/26 00:57:57;;;;;;;;;;;5.10;99.90;;;;;;6213256;23;20001;-73
2022/01/26 01:00:25;;;;;;;0.00;0.00;;;5.10;99.90;;;;;;6211967;23;19982;-71
2022/01/26 01:02:53;;;;;;;0.00;0.00;;;5.00;99.90;;;;;;6211578;23;20004;-71
2022/01/26 01:05:26;;;;;;;0.00;0.00;;;5.00;99.90;;;;;;6212460;23;20000;-72
2022/01/26 01:07:59;;;;;;;0.00;0.00;;;5.00;99.90;;;;;;6211847;23;20004;-72
2022/01/26 01:10:25;;;;;;;0.00;0.00;;;5.00;99.90;;;;;;6212217;23;20015;-73
2022/01/26 01:12:56;;;;;;;0.00;0.00;;;4.90;99.90;;;;;;6213228;23;20063;-73
2022/01/26 01:15:24;;;;;;;0.00;0.00;;;4.90;99.90;;;;;;6212394;23;20028;-72
2022/01/26 01:17:54;;;;;;;0.00;0.00;;;5.10;99.90;;;;;;6212575;23;20551;-74
2022/01/26 01:23:15;;;;;;;0.00;0.00;;;5.40;99.90;;;;;;6213405;23;20429;-71
2022/01/26 01:28:43;;;;;;;0.00;0.00;;;5.70;99.90;;;;;;6210846;23;20437;-71
2022/01/26 01:31:15;;;;;;;0.00;0.00;;;5.70;99.90;;;;;;6212874;23;19997;-73
2022/01/26 01:33:45;;;;;;;0.00;0.00;;;5.80;99.90;;;;;;6211221;23;20360;-72
2022/01/26 01:36:12;;;;;;;0.00;0.00;;;5.90;99.90;;;;;;6212680;23;20333;-72
2022/01/26 01:38:42;;;;;;;0.00;0.00;;;5.90;99.90;;;;;;6211957;23;20008;-72
2022/01/26 01:41:08;;;;;;;0.00;0.00;;;5.90;99.90;;;;;;6214005;23;20008;-71
2022/01/26 01:43:34;;;;;;;;;;;5.80;99.90;;;;;;6214347;23;20472;-72
2022/01/26 01:46:00;;;;;;;0.00;0.00;;;5.90;99.90;;;;;;6214832;23;19931;-72
2022/01/26 01:48:30;;;;;;;0.00;0.00;;;5.90;99.90;;;;;;6213600;23;20008;-73
2022/01/26 01:50:59;;;;;;;0.00;0.00;;;5.80;99.90;;;;;;6214677;23;20000;-72
2022/01/26 01:56:24;;;;;;;0.00;0.00;;;5.80;99.90;;;;;;6201028;23;20076;-72
2022/01/26 01:58:53;;;;;;;0.00;0.00;;;5.80;99.90;;;;;;6213136;23;20005;-72
2022/01/26 02:01:19;;;;;;;0.00;0.00;;;5.80;99.90;;;;;;6213221;23;20302;-72
2022/01/26 02:03:44;;;;;;;0.00;0.00;;;5.70;99.90;;;;;;6214798;23;20004;-71
2022/01/26 02:06:10;;;;;;;0.00;0.00;;;5.70;99.90;;;;;;6214192;23;20056;-72
2022/01/26 02:08:36;;;;;;;0.00;0.00;;;5.80;99.90;;;;;;6213390;23;20477;-71
2022/01/26 02:11:05;;;;;;;0.00;0.00;;;5.80;99.90;;;;;;6213736;23;20016;-71
2022/01/26 02:13:38;;;;;;;0.00;0.00;;;5.90;99.90;;;;;;6214919;23;20055;-72
2022/01/26 02:16:19;;;;;;;0.00;0.00;;;5.90;99.90;;;;;;6219421;23;20051;-71
2022/01/26 03:00:14;;;;;;;0.00;0.00;;;6.40;99.90;;;;;;6146248;23;20016;-71
2022/01/26 03:05:12;;;;;;;0.00;0.00;;;6.30;99.90;;;;;;6213620;23;20008;-72
2022/01/26 03:07:51;;;;;;;0.00;0.00;;;6.20;99.90;;;;;;6211546;23;20057;-71
2022/01/26 03:10:36;;;;;;;0.00;0.00;;;6.10;99.90;;;;;;6214325;23;20433;-72
2022/01/26 03:13:10;;;;;;;0.00;0.00;;;6.10;99.90;;;;;;6215267;23;20004;-71
2022/01/26 03:15:42;;;;;;;0.00;0.00;;;6.20;99.90;;;;;;6214144;23;20055;-72
2022/01/26 03:20:54;;;;;;;0.00;0.00;;;6.10;99.90;;;;;;6213002;23;20019;-71
2022/01/26 03:34:11;;;;;;;0.00;0.00;;;6.00;99.90;;;;;;6213974;23;20307;-72
2022/01/26 03:36:51;;;;;;;0.00;0.00;;;6.00;99.90;;;;;;6214566;23;20091;-74
2022/01/26 03:39:21;;;;;;;0.00;0.00;;;6.10;99.90;;;;;;6213658;23;20004;-72
2022/01/26 03:44:20;;;;;;;0.00;0.00;;;6.10;99.90;;;;;;6215753;23;20422;-72
2022/01/26 03:46:47;;;;;;;0.00;0.00;;;6.20;99.90;;;;;;6211002;23;19992;-71
2022/01/26 03:49:13;;;;;;;0.00;0.00;;;6.20;99.90;;;;;;6212879;23;20043;-72
2022/01/26 03:51:40;;;;;;;;;;;6.20;99.90;;;;;;6212935;23;20088;-71
2022/01/26 03:54:06;;;;;;;0.00;0.00;;;6.20;99.90;;;;;;6211685;23;19900;-72
2022/01/26 03:56:32;;;;;;;;;;;6.30;99.90;;;;;;6211145;23;20472;-72
2022/01/26 03:58:58;;;;;;;0.00;0.00;;;6.20;99.90;;;;;;6213146;23;19904;-71
2022/01/26 04:01:24;;;;;;;0.00;0.00;;;6.20;99.90;;;;;;6209087;23;20016;-72
2022/01/26 04:03:49;;;;;;;;;;;6.20;99.90;;;;;;6212901;23;20001;-72
2022/01/26 04:06:16;;;;;;;0.00;0.00;;;6.20;99.90;;;;;;6211923;23;19931;-73
2022/01/26 04:08:42;;;;;;;0.00;0.00;;;6.20;99.90;;;;;;6211643;23;20000;-73
2022/01/26 04:13:34;;;;;;;0.00;0.00;;;6.30;99.90;;;;;;6212742;23;20304;-72
2022/01/26 04:16:00;;;;;;;0.00;0.00;;;6.20;99.90;;;;;;6213324;23;20001;-73
2022/01/26 04:18:33;;;;;;;0.00;0.00;;;6.20;99.90;;;;;;6211249;23;20004;-72
2022/01/26 04:21:04;;;;;;;0.00;0.00;;;6.20;99.90;;;;;;6210298;23;20333;-72
2022/01/26 04:23:45;;;;;;;0.00;0.00;;;6.20;99.90;;;;;;6212849;23;20080;-73
2022/01/26 04:26:13;;;;;;;0.00;0.00;;;6.30;99.90;;;;;;6212972;23;20319;-72
2022/01/26 04:28:44;;;;;;;0.00;0.00;;;6.30;99.90;;;;;;6211159;23;20438;-71
2022/01/26 04:31:10;;;;;;;0.00;0.00;;;6.40;99.90;;;;;;6213012;23;20004;-73
2022/01/26 04:33:36;;;;;;;0.00;0.00;;;6.40;99.90;;;;;;6211571;23;20397;-71
2022/01/26 04:36:06;;;;;;;0.00;0.00;;;6.50;99.90;;;;;;6211570;23;20001;-72
2022/01/26 04:38:38;;;;;;;0.00;0.00;;;6.40;99.90;;;;;;6210114;23;20379;-72
2022/01/26 04:43:52;;;;;;;0.00;0.00;;;6.40;99.90;;;;;;6212549;23;20088;-72
2022/01/26 04:46:17;;;;;;;0.00;0.00;;;6.20;99.90;;;;;;6212823;23;20058;-72
2022/01/26 04:48:43;;;;;;;0.00;0.00;;;6.10;99.90;;;;;;6211602;23;20336;-73
2022/01/26 04:51:08;;;;;;;0.00;0.00;;;6.20;99.90;;;;;;6212899;23;20005;-73
2022/01/26 04:53:34;;;;;;;0.00;0.00;;;6.30;99.90;;;;;;6211268;23;20000;-72
2022/01/26 04:56:00;;;;;;;0.00;0.00;;;6.30;99.90;;;;;;6211293;23;20043;-72
2022/01/26 04:58:26;;;;;;;0.00;0.00;;;6.30;99.90;;;;;;6211969;23;19997;-72
2022/01/26 05:00:51;;;;;;;0.00;0.00;;;6.30;99.90;;;;;;6209280;23;20071;-72
2022/01/26 05:03:17;;;;;;;0.00;0.00;;;6.30;99.90;;;;;;6211695;23;20051;-72
2022/01/26 05:05:43;;;;;;;0.00;0.00;;;6.30;99.90;;;;;;6211463;23;20015;-72
2022/01/26 05:08:09;;;;;;;0.00;0.00;;;6.20;99.90;;;;;;6208472;23;20012;-73
2022/01/26 05:10:37;;;;;;;0.00;0.00;;;6.20;99.90;;;;;;6209981;23;20337;-73
2022/01/26 05:13:02;;;;;;;0.00;0.00;;;6.20;99.90;;;;;;6214850;23;20004;-71
2022/01/26 05:15:28;;;;;;;0.00;0.00;;;6.30;99.90;;;;;;6209172;23;20004;-73
2022/01/26 05:17:54;;;;;;;0.00;0.00;;;6.20;99.90;;;;;;6212438;23;20354;-72
2022/01/26 05:20:20;;;;;;;0.00;0.00;;;6.20;99.90;;;;;;6212144;23;20005;-71
2022/01/26 05:22:46;;;;;;;0.00;0.00;;;6.20;99.90;;;;;;6212432;23;20005;-73
2022/01/26 05:25:13;;;;;;;0.00;0.00;;;6.20;99.90;;;;;;6212741;23;20451;-72
2022/01/26 05:27:39;;;;;;;0.00;0.00;;;6.30;99.90;;;;;;6210799;23;20075;-71
2022/01/26 05:30:07;;;;;;;0.00;0.00;;;6.30;99.90;;;;;;6212613;23;19996;-73
2022/01/26 05:32:33;;;;;;;0.00;0.00;;;6.30;99.90;;;;;;6212640;23;20087;-72
2022/01/26 05:34:59;;;;;;;0.00;0.00;;;6.40;99.90;;;;;;6210005;23;20032;-71
2022/01/26 05:37:25;;;;;;;0.00;0.00;;;6.40;99.90;;;;;;6212924;23;20050;-73
2022/01/26 05:39:51;;;;;;;0.00;0.00;;;6.40;99.90;;;;;;6213069;23;19996;-71
2022/01/26 05:42:17;;;;;;;0.00;0.00;;;6.40;99.90;;;;;;6211637;23;20008;-71
2022/01/26 05:44:44;;;;;;;0.00;0.00;;;6.40;99.90;;;;;;6213060;23;20425;-72
2022/01/26 05:47:15;;;;;;;0.00;0.00;;;6.40;99.90;;;;;;6211885;23;19997;-72
2022/01/26 05:49:41;;;;;;;0.00;0.00;;;6.50;99.90;;;;;;6210978;23;19997;-71
2022/01/26 05:52:07;;;;;;;0.00;0.00;;;6.60;99.90;;;;;;6211758;23;20004;-71
2022/01/26 05:54:32;;;;;;;0.00;0.00;;;6.50;99.90;;;;;;6211382;23;20454;-71
2022/01/26 05:56:58;;;;;;;0.00;0.00;;;6.50;99.90;;;;;;6212284;23;20408;-72
2022/01/26 05:59:24;;;;;;;0.00;0.00;;;6.50;99.90;;;;;;6210489;23;20051;-72
2022/01/26 06:01:50;;;;;;;0.00;0.00;;;6.50;99.90;;;;;;6210820;23;20068;-71
2022/01/26 06:04:17;;;;;;;0.00;0.00;;;6.50;99.90;;;;;;6212667;23;20020;-72
2022/01/26 06:06:42;;;;;;;0.00;0.00;;;6.50;99.90;;;;;;6211894;23;19996;-70
2022/01/26 06:09:08;;;;;;;0.00;0.00;;;6.50;99.90;;;;;;6213063;23;20448;-72
2022/01/26 06:11:34;;;;;;;0.00;0.00;;;6.40;99.90;;;;;;6211795;23;20090;-72
2022/01/26 06:14:00;;;;;;;0.00;0.00;;;6.40;99.90;;;;;;6209669;23;20441;-73
2022/01/26 06:16:26;;;;;;;0.00;0.00;;;6.40;99.90;;;;;;6211896;23;20432;-71
2022/01/26 06:18:51;;;;;;;0.00;0.00;;;6.50;99.90;;;;;;6211551;23;20051;-73
2022/01/26 06:21:17;;;;;;;0.00;0.00;;;6.50;99.90;;;;;;6212097;23;20015;-71
2022/01/26 06:23:43;;;;;;;0.00;0.00;;;6.50;99.90;;;;;;6211437;23;20000;-72
2022/01/26 06:26:09;;;;;;;0.00;0.00;;;6.50;99.90;;;;;;6214510;23;20020;-73
2022/01/26 06:28:35;;;;;;;0.00;0.00;;;6.50;99.90;;;;;;6215146;23;20437;-72
2022/01/26 06:31:04;;;;;;;0.00;0.00;;;6.40;99.90;;;;;;6215236;23;20008;-72
2022/01/26 06:33:33;;;;;;;0.00;0.00;;;6.40;99.90;;;;;;6214012;23;20000;-73
2022/01/26 06:36:00;;;;;;;0.00;0.00;;;6.40;99.90;;;;;;6215760;23;20927;-72
2022/01/26 06:38:28;;;;;;;0.00;0.00;;;6.30;99.90;;;;;;6214798;23;20091;-73
2022/01/26 06:40:54;;;;;;;0.00;0.00;;;6.20;99.90;;;;;;6214269;23;20000;-72
2022/01/26 06:43:22;;;;;;;0.00;0.00;;;6.20;99.90;;;;;;6215985;23;19997;-72
2022/01/26 06:45:52;;;;;;;0.00;0.00;;;6.20;99.90;;;;;;6215597;23;20024;-72
2022/01/26 06:51:00;;;;;;;0.00;0.00;;;6.20;99.90;;;;;;6215105;23;20012;-72
2022/01/26 06:53:26;;;;;;;0.00;0.00;;;6.10;99.90;;;;;;6215304;23;20000;-72
2022/01/26 06:55:52;;;;;;;0.00;0.00;;;6.30;99.90;;;;;;6214666;23;19993;-72
2022/01/26 06:58:18;;;;;;;;;;;6.20;99.90;;;;;;6215283;23;20003;-73
2022/01/26 07:00:44;;;;;;;0.00;0.00;;;6.30;99.90;;;;;;6214367;23;19908;-73
2022/01/26 07:03:10;;;;;;;0.00;0.00;;;6.30;99.90;;;;;;6214776;23;20008;-72
2022/01/26 07:05:36;;;;;;;;;;;6.20;99.90;;;;;;6216213;23;20340;-73
2022/01/26 07:08:04;;;;;;;0.00;0.00;;;6.10;99.90;;;;;;6211816;23;19918;-72
2022/01/26 07:10:30;;;;;;;0.00;0.00;;;6.00;99.90;;;;;;6215072;23;20000;-73
2022/01/26 07:12:56;;;;;;;0.00;0.00;;;5.90;99.90;;;;;;6213945;23;20004;-72
2022/01/26 07:23:43;;;;;;;0.00;0.00;;;5.50;99.90;;;;;;6214390;23;20058;-72
2022/01/26 07:26:09;;;;;;;0.00;0.00;;;5.40;99.90;;;;;;6213490;23;20436;-73
2022/01/26 07:28:38;;;;;;;0.00;0.00;;;5.30;99.90;;;;;;6212905;23;20039;-72
2022/01/26 07:31:05;;;;;;;0.00;0.00;;;5.20;99.90;;;;;;6213618;23;20019;-72
2022/01/26 07:33:32;;;;;;;0.00;0.00;;;5.10;99.90;;;;;;6212989;23;20000;-72
2022/01/26 07:35:58;;;;;;;0.00;0.00;;;5.10;99.90;;;;;;6211560;23;20008;-73
2022/01/26 07:38:25;;;;;;;0.00;0.00;;;5.10;99.90;;;;;;6214170;23;20333;-77
2022/01/26 07:40:51;;;;;;;0.00;0.00;;;5.00;99.90;;;;;;6214371;23;20130;-76
2022/01/26 07:43:17;;;;;;;;;;;5.00;99.90;;;;;;6214660;23;20001;-75
2022/01/26 07:45:43;;;;;;;0.00;0.00;;;4.80;99.90;;;;;;6215050;23;20452;-76
2022/01/26 07:48:09;;;;;;;0.00;0.00;;;4.80;99.90;;;;;;6213638;23;20024;-75
2022/01/26 07:50:35;;;;;;;0.00;0.00;;;4.80;99.90;;;;;;6213022;23;20055;-75
2022/01/26 07:53:02;;;;;;;0.00;0.00;;;4.70;99.90;;;;;;6211491;23;20050;-76
2022/01/26 07:55:28;;;;;;;0.00;0.00;;;4.60;99.90;;;;;;6210706;23;20000;-76
2022/01/26 07:57:55;;;;;;;;;;;4.70;99.90;;;;;;6212557;23;19996;-76
2022/01/26 08:00:21;;;;;;;0.00;0.00;;;4.60;99.90;;;;;;6210007;23;19903;-75
2022/01/26 08:02:47;;;;;;;0.00;0.00;;;4.60;99.90;;;;;;6211440;23;20491;-76
2022/01/26 08:05:14;;;;;;;0.00;0.00;;;4.50;99.90;;;;;;6213175;23;20004;-76
2022/01/26 08:07:40;;;;;;;0.00;0.00;;;4.40;99.90;;;;;;6214456;23;20317;-77
2022/01/26 08:10:07;;;;;;;0.00;0.00;;;4.20;99.90;;;;;;6221515;23;19996;-75
2022/01/26 08:12:33;;;;;;;0.00;0.00;;;4.10;99.90;;;;;;6219573;23;20009;-75
2022/01/26 08:14:58;;;;;;;;;;;4.10;99.90;;;;;;6217579;23;20074;-75
2022/01/26 08:17:24;;;;;;;0.00;0.00;;;4.10;99.90;;;;;;6216325;23;19916;-75
2022/01/26 08:19:55;;;;;;;0.00;0.00;;;4.20;99.90;;;;;;6214802;23;20028;-75
2022/01/26 08:22:23;;;;;;;0.00;0.00;;;4.30;99.90;;;;;;6212601;23;20015;-74
2022/01/26 08:24:50;;;;;;;0.00;0.00;;;4.20;99.90;;;;;;6214090;23;19996;-75
2022/01/26 08:27:20;;;;;;;0.00;0.00;;;4.10;99.90;;;;;;6213627;23;20054;-76
2022/01/26 08:29:53;;;;;;;0.00;0.00;;;4.00;99.90;;;;;;6215329;23;20015;-75
2022/01/26 08:32:19;;;;;;;0.00;0.00;;;3.90;99.90;;;;;;6212435;23;19997;-76
2022/01/26 08:34:45;;;;;;;0.00;0.00;;;3.90;99.90;;;;;;6211655;23;20019;-75
2022/01/26 08:37:12;;;;;;;0.00;0.00;;;3.90;99.90;;;;;;6212455;23;20328;-77
2022/01/26 08:39:38;;;;;;;0.00;0.00;;;4.00;99.90;;;;;;6210496;23;20000;-76
2022/01/26 08:42:07;;;;;;;0.00;0.00;;;4.00;99.90;;;;;;6211033;23;20012;-75
2022/01/26 08:44:35;;;;;;;0.00;0.00;;;4.10;99.90;;;;;;6211969;23;19997;-75
2022/01/26 08:47:02;;;;;;;0.00;0.00;;;4.10;99.90;;;;;;6212949;23;20032;-76
2022/01/26 08:49:28;;;;;;;0.00;0.00;;;4.10;99.90;;;;;;6213286;23;20039;-76
2022/01/26 08:51:54;;;;;;;0.00;0.00;;;4.20;99.90;;;;;;6213629;23;20004;-75
2022/01/26 08:54:20;;;;;;;;;;;4.20;99.90;;;;;;6216007;23;20050;-76
2022/01/26 08:56:53;;;;;;;0.00;0.00;;;4.20;99.90;;;;;;6214233;23;19900;-75
2022/01/26 08:59:20;;;;;;;0.00;0.00;;;4.30;99.90;;;;;;6214858;23;20004;-76
2022/01/26 09:01:46;;;;;;;0.00;0.00;;;4.30;99.90;;;;;;6210869;23;20075;-75
2022/01/26 09:04:13;;;;;;;0.00;0.00;;;4.30;99.90;;;;;;6210240;23;20333;-76
2022/01/26 09:06:50;;;;;;;0.00;0.00;;;4.30;99.90;;;;;;6210627;23;20000;-76
2022/01/26 09:09:17;;;;;;;0.00;0.00;;;4.50;99.90;;;;;;6209670;23;20004;-75
2022/01/26 09:11:43;;;;;;;0.00;0.00;;;4.50;99.90;;;;;;6211111;23;20087;-74
2022/01/26 09:14:10;;;;;;;;;;;4.50;99.90;;;;;;6210868;23;20110;-74
2022/01/26 09:16:36;;;;;;;0.00;0.00;;;4.60;99.90;;;;;;6210976;23;19927;-75
2022/01/26 09:19:26;;;;;;;0.00;0.00;;;4.60;99.90;;;;;;6211173;23;20008;-74
2022/01/26 09:21:49;;;;;;;0.00;0.00;;;4.70;99.90;;;;;;6210095;23;20028;-73
2022/01/26 09:24:15;;;;;;;0.00;0.00;;;4.70;99.90;;;;;;6210095;23;20023;-74
2022/01/26 09:26:41;;;;;;;0.00;0.00;;;4.70;99.90;;;;;;6209348;23;20348;-73
2022/01/26 09:29:09;;;;;;;0.00;0.00;;;4.80;99.90;;;;;;6210648;23;20080;-76
2022/01/26 09:31:36;;;;;;;0.00;0.00;;;5.00;99.90;;;;;;6210927;23;20003;-77
2022/01/26 09:34:02;;;;;;;0.00;0.00;;;5.10;99.90;;;;;;6211041;23;20024;-77
2022/01/26 09:36:27;;;;;;;0.00;0.00;;;5.30;99.90;;;;;;6211577;23;20005;-75
2022/01/26 09:38:53;;;;;;;0.00;0.00;;;5.50;99.90;;;;;;6213371;23;20440;-77
2022/01/26 09:41:23;;;;;;;0.00;0.00;;;5.50;99.90;;;;;;6211858;23;20016;-75
2022/01/26 09:43:49;;;;;;;0.00;0.00;;;5.60;99.90;;;;;;6211162;23;20004;-76
2022/01/26 09:46:14;;;;;;;;;;;5.70;99.90;;;;;;6213153;23;20024;-77
2022/01/26 09:48:42;;;;;;;0.00;0.00;;;5.80;99.90;;;;;;6210773;23;19954;-76
2022/01/26 09:51:12;;;;;;;0.00;0.00;;;5.90;99.90;;;;;;6210987;23;20452;-77
2022/01/26 09:53:38;;;;;;;0.00;0.00;;;6.00;99.90;;;;;;6210146;23;20306;-76
2022/01/26 09:56:04;;;;;;;0.00;0.00;;;6.00;99.90;;;;;;6212184;23;20001;-77
2022/01/26 09:58:30;;;;;;;;;;;6.20;99.90;;;;;;6214374;23;20425;-77
2022/01/26 10:01:03;;;;;;;0.00;0.00;;;6.20;99.90;;;;;;6213455;23;19922;-76
2022/01/26 10:03:34;;;;;;;0.00;0.00;;;6.20;99.90;;;;;;6215148;23;20035;-77
2022/01/26 10:06:01;;;;;;;0.00;0.00;;;6.20;99.90;;;;;;6214495;23;20489;-76
2022/01/26 10:17:18;;;;;;;0.00;0.00;;;6.50;99.90;;;;;;6124754;23;20129;-76
2022/01/26 10:19:34;;;;;;;0.00;0.00;;;6.70;99.90;;;;;;6120732;23;20016;-77
2022/01/26 10:21:59;;;;;;;0.00;0.00;;;6.90;99.90;;;;;;6176509;23;20009;-76
2022/01/26 10:24:28;;;;;;;0.00;0.00;;;7.10;99.90;;;;;;6214706;23;20073;-77
2022/01/26 10:26:59;;;;;;;0.00;0.00;;;7.20;99.90;;;;;;6214273;23;20438;-78
2022/01/26 10:29:25;;;;;;;0.00;0.00;;;7.30;99.90;;;;;;6215075;23;20004;-76
2022/01/26 10:31:50;;;;;;;0.00;0.00;;;7.40;99.90;;;;;;6214444;23;19997;-76
2022/01/26 10:34:23;;;;;;;0.00;0.00;;;7.60;99.90;;;;;;6213289;23;20003;-77
2022/01/26 10:37:04;;;;;;;0.00;0.00;;;7.70;99.90;;;;;;6215952;23;20001;-76
2022/01/26 10:39:41;;;;;;;0.00;0.00;;;7.90;99.90;;;;;;6214201;23;20011;-76
2022/01/26 10:42:16;;;;;;;0.00;0.00;;;8.00;99.90;;;;;;6213862;23;20000;-75
2022/01/26 10:47:33;;;;;;;0.00;0.00;;;7.90;99.90;;;;;;6213006;23;20443;-76
2022/01/26 10:50:29;;;;;;;0.00;0.00;;;7.90;99.90;;;;;;6214401;23;20008;-76
2022/01/26 10:52:56;;;;;;;0.00;0.00;;;8.00;99.90;;;;;;6214765;23;20003;-75
2022/01/26 10:55:24;;;;;;;0.00;0.00;;;8.00;99.90;;;;;;6213489;23;20091;-76
2022/01/26 10:57:49;;;;;;;0.00;0.00;;;8.20;99.90;;;;;;6213099;23;20028;-74
2022/01/26 11:00:15;;;;;;;0.00;0.00;;;8.20;99.90;;;;;;6214581;23;20429;-75
2022/01/26 11:02:47;;;;;;;0.00;0.00;;;8.40;99.90;;;;;;6215502;23;20004;-76
2022/01/26 11:05:13;;;;;;;0.00;0.00;;;8.40;99.90;;;;;;6217432;23;19996;-75
2022/01/26 11:07:42;;;;;;;0.00;0.00;;;8.40;99.90;;;;;;6214820;23;19996;-77
2022/01/26 11:10:09;;;;;;;0.00;0.00;;;8.40;99.90;;;;;;6215359;23;20031;-74
2022/01/26 11:12:39;;;;;;;0.00;0.00;;;8.40;99.90;;;;;;6214742;23;20035;-74
2022/01/26 11:15:11;;;;;;;0.00;0.00;;;8.60;99.90;;;;;;6214386;23;20013;-76
2022/01/26 11:17:42;;;;;;;0.00;0.00;;;8.50;99.90;;;;;;6211784;23;20000;-75
2022/01/26 11:20:21;;;;;;;0.00;0.00;;;8.50;99.90;;;;;;6211023;23;20341;-76
2022/01/26 11:23:03;;;;;;;0.00;0.00;;;8.60;99.90;;;;;;6214267;23;20383;-76
2022/01/26 11:25:30;;;;;;;0.00;0.00;;;8.80;99.90;;;;;;6214750;23;20068;-75
2022/01/26 11:27:57;;;;;;;0.00;0.00;;;8.70;99.90;;;;;;6213261;23;20440;-76
2022/01/26 11:30:27;;;;;;;0.00;0.00;;;8.60;99.90;;;;;;6212328;23;19996;-74
2022/01/26 11:33:20;;;;;;;0.00;0.00;;;8.60;99.90;;;;;;6213304;23;20009;-75
2022/01/26 11:35:48;;;;;;;0.00;0.00;;;8.60;99.90;;;;;;6213391;23;20402;-74
2022/01/26 11:46:29;;;;;;;0.00;0.00;;;8.90;99.90;;;;;;6212608;23;20055;-76
2022/01/26 11:49:03;;;;;;;0.00;0.00;;;8.80;99.90;;;;;;6210865;23;20129;-76
2022/01/26 11:51:58;;;;;;;0.00;0.00;;;8.80;99.90;;;;;;6214682;23;20055;-76
2022/01/26 11:54:27;;;;;;;0.00;0.00;;;8.80;99.90;;;;;;6185993;23;20013;-76
2022/01/26 11:57:14;;;;;;;0.00;0.00;;;8.80;99.90;;;;;;6212751;23;20085;-76
2022/01/26 11:59:46;;;;;;;0.00;0.00;;;8.90;99.90;;;;;;6214462;23;20083;-76
2022/01/26 12:02:25;;;;;;;0.00;0.00;;;9.00;99.90;;;;;;6211695;23;20024;-76
2022/01/26 12:05:00;;;;;;;0.00;0.00;;;8.90;99.90;;;;;;6214112;23;20082;-76
2022/01/26 12:07:26;;;;;;;0.00;0.00;;;9.00;99.90;;;;;;6211040;23;20011;-75
2022/01/26 12:09:52;;;;;;;0.00;0.00;;;9.20;99.90;;;;;;6213580;23;20063;-76
2022/01/26 12:12:23;;;;;;;0.00;0.00;;;9.20;99.90;;;;;;6213770;23;20096;-76
2022/01/26 12:15:04;;;;;;;0.00;0.00;;;9.20;99.90;;;;;;6212675;23;20011;-76
2022/01/26 12:17:34;;;;;;;0.00;0.00;;;9.30;99.90;;;;;;6216552;23;20023;-76
2022/01/26 12:32:04;;;;;;;0.00;0.00;;;9.50;99.90;;;;;;6213087;23;20005;-75
2022/01/26 12:45:15;;;;;;;0.00;0.00;;;9.50;99.90;;;;;;6214287;23;20000;-75
2022/01/26 12:47:43;;;;;;;0.00;0.00;;;9.60;99.90;;;;;;6211476;23;20001;-77
2022/01/26 12:50:09;;;;;;;0.00;0.00;;;9.60;99.90;;;;;;6214696;23;20285;-75
2022/01/26 12:52:35;;;;;;;;;;;9.60;99.90;;;;;;6214766;23;20009;-76
2022/01/26 12:55:01;;;;;;;0.00;0.00;;;9.50;99.90;;;;;;6211678;23;20188;-76
2022/01/26 12:57:27;;;;;;;0.00;0.00;;;9.40;99.90;;;;;;6213229;23;20433;-76
2022/01/26 13:00:05;;;;;;;0.00;0.00;;;9.40;99.90;;;;;;6213196;23;20171;-76
2022/01/26 13:02:30;;;;;;;0.00;0.00;;;9.50;99.90;;;;;;6213178;23;20080;-75
2022/01/26 13:05:04;;;;;;;0.00;0.00;;;9.50;99.90;;;;;;6213014;23;20075;-76
2022/01/26 13:07:30;;;;;;;0.00;0.00;;;9.50;99.90;;;;;;6209943;23;20440;-76
2022/01/26 13:09:56;;;;;;;;;;;9.50;99.90;;;;;;6214102;23;20009;-75
2022/01/26 13:12:32;;;;;;;0.00;0.00;;;9.40;99.90;;;;;;6212531;23;19922;-76
2022/01/26 13:15:07;;;;;;;0.00;0.00;;;9.40;99.90;;;;;;6209278;23;20020;-75
2022/01/26 13:17:41;;;;;;;0.00;0.00;;;9.30;99.90;;;;;;6213095;23;20390;-77
2022/01/26 13:25:29;;;;;;;0.00;0.00;;;9.60;99.90;;;;;;6214689;23;20008;-76
2022/01/26 13:31:12;;;;;;;0.00;0.00;;;9.60;99.90;;;;;;6215982;23;20007;-77
2022/01/26 13:59:30;;;;;;;0.00;0.00;;;9.50;99.90;;;;;;6215714;23;20019;-76
2022/01/26 14:01:57;;;;;;;0.00;0.00;;;9.60;99.90;;;;;;6212994;23;20005;-75
2022/01/26 14:04:23;;;;;;;0.00;0.00;;;9.60;99.90;;;;;;6213988;23;20001;-75
2022/01/26 14:06:49;;;;;;;0.00;0.00;;;9.60;99.90;;;;;;6215801;23;19997;-75
2022/01/26 14:09:15;;;;;;;0.00;0.00;;;9.80;99.90;;;;;;6218428;23;20360;-76
2022/01/26 14:11:43;;;;;;;0.00;0.00;;;9.80;99.90;;;;;;6228614;23;20009;-74
2022/01/26 14:14:10;;;;;;;0.00;0.00;;;9.90;99.90;;;;;;6214803;23;20019;-76
2022/01/26 14:16:44;;;;;;;0.00;0.00;;;9.80;99.90;;;;;;6215990;23;20036;-75
2022/01/26 14:24:51;;;;;;;0.00;0.00;;;9.60;99.90;;;;;;6213485;23;20460;-76
2022/01/26 14:27:20;;;;;;;0.00;0.00;;;9.50;99.90;;;;;;6211570;23;20001;-76
2022/01/26 14:30:15;;;;;;;0.00;0.00;;;9.50;99.90;;;;;;6212544;23;19997;-76
2022/01/26 14:33:04;;;;;;;0.00;0.00;;;9.40;99.90;;;;;;6213264;23;20162;-75
2022/01/26 14:52:04;;;;;;;0.00;0.00;;;9.60;99.90;;;;;;6215099;23;20094;-74
2022/01/26 15:30:06;;;;;;;0.00;0.00;;;9.30;99.90;;;;;;6214262;23;20451;-75
2022/01/26 15:40:50;;;;;;;0.00;0.00;;;9.40;99.90;;;;;;6215524;23;20012;-75
2022/01/26 16:20:35;;;;;;;0.00;0.00;;;9.00;99.90;;;;;;6213041;23;20011;-77
2022/01/26 16:44:22;;;;;;;0.00;0.00;;;8.40;99.90;;;;;;6213765;23;20005;-74
2022/01/26 18:49:39;;;;;;;0.00;0.00;;;7.60;99.90;;;;;;6216823;23;20456;-75
2022/01/26 18:52:06;;;;;;;0.00;0.00;;;7.50;99.90;;;;;;6213516;23;20000;-75
2022/01/26 18:54:34;;;;;;;0.00;0.00;;;7.50;99.90;;;;;;6214130;23;20001;-75
2022/01/26 18:57:03;;;;;;;0.00;0.00;;;7.40;99.90;;;;;;6211573;23;20048;-74
2022/01/26 18:59:29;;;;;;;0.00;0.00;;;7.40;99.90;;;;;;6209112;23;20505;-74
2022/01/26 19:01:56;;;;;;;0.00;0.00;;;7.40;99.90;;;;;;6210787;23;20013;-74
2022/01/26 19:04:29;;;;;;;0.00;0.00;;;7.40;99.90;;;;;;6211151;23;20030;-75
2022/01/26 19:06:55;;;;;;;0.00;0.00;;;7.50;99.90;;;;;;6206323;23;20373;-74
2022/01/26 19:09:25;;;;;;;0.00;0.00;;;7.50;99.90;;;;;;6210339;23;20015;-74
2022/01/26 19:11:51;;;;;;;0.00;0.00;;;7.60;99.90;;;;;;6212990;23;20091;-74
2022/01/26 19:14:18;;;;;;;0.00;0.00;;;7.70;99.90;;;;;;6212070;23;20015;-73
2022/01/26 19:16:50;;;;;;;0.00;0.00;;;7.80;99.90;;;;;;6213465;23;20095;-74
2022/01/26 19:27:09;;;;;;;0.00;0.00;;;7.90;99.90;;;;;;6212958;23;20079;-74
2022/01/26 19:53:03;;;;;;;0.00;0.00;;;8.30;99.90;;;;;;6215173;23;20132;-74
2022/01/26 19:55:29;;;;;;;0.00;0.00;;;8.10;99.90;;;;;;6211723;23;20000;-75
2022/01/26 19:57:55;;;;;;;0.00;0.00;;;8.00;99.90;;;;;;6212898;23;20746;-74
2022/01/26 20:00:22;;;;;;;0.00;0.00;;;7.90;99.90;;;;;;6208058;23;20030;-75
2022/01/26 20:02:47;;;;;;;;;;;8.00;99.90;;;;;;6213228;23;20027;-74
2022/01/26 20:05:16;;;;;;;0.00;0.00;;;8.00;99.90;;;;;;6211181;23;20313;-74
2022/01/26 20:07:46;;;;;;;0.00;0.00;;;8.10;99.90;;;;;;6210841;23;19997;-75
2022/01/26 20:10:14;;;;;;;0.00;0.00;;;8.20;99.90;;;;;;6212129;23;20020;-76
2022/01/26 20:12:47;;;;;;;0.00;0.00;;;8.20;99.90;;;;;;6211699;23;20044;-78
2022/01/26 20:15:14;;;;;;;0.00;0.00;;;8.20;99.90;;;;;;6209813;23;20001;-76
2022/01/26 20:17:43;;;;;;;0.00;0.00;;;8.30;99.90;;;;;;6210789;23;20000;-76
2022/01/26 20:20:12;;;;;;;0.00;0.00;;;8.30;99.90;;;;;;6210145;23;20092;-76
2022/01/26 20:22:39;;;;;;;0.00;0.00;;;8.40;99.90;;;;;;6207112;23;20378;-75
2022/01/26 20:25:06;;;;;;;0.00;0.00;;;8.30;99.90;;;;;;6210828;23;20007;-75
2022/01/26 20:27:33;;;;;;;0.00;0.00;;;8.30;99.90;;;;;;6208672;23;20005;-76
2022/01/26 20:30:10;;;;;;;0.00;0.00;;;8.40;99.90;;;;;;6187981;23;20056;-76
2022/01/26 20:32:36;;;;;;;0.00;0.00;;;8.50;99.90;;;;;;6212554;23;20011;-76
2022/01/26 20:35:01;;;;;;;0.00;0.00;;;8.50;99.90;;;;;;6210955;23;20333;-76
2022/01/26 20:37:28;;;;;;;0.00;0.00;;;8.60;99.90;;;;;;6211522;23;20054;-75
2022/01/26 20:39:55;;;;;;;0.00;0.00;;;8.60;99.90;;;;;;6211906;23;20024;-75
2022/01/26 20:42:21;;;;;;;0.00;0.00;;;8.60;99.90;;;;;;6211542;23;20000;-74
2022/01/26 20:44:47;;;;;;;0.00;0.00;;;8.70;99.90;;;;;;6211248;23;20001;-75
2022/01/26 20:47:13;;;;;;;0.00;0.00;;;8.70;99.90;;;;;;6210747;23;20405;-75
2022/01/26 20:49:39;;;;;;;0.00;0.00;;;8.60;99.90;;;;;;6212226;23;20077;-75